sensor_id;sensor_type;location;lat;lon;timestamp;temperature;humidity
6788;DHT22;3431;47.966;10.268;2023-04-01T00:00:22;6.00;99.90
6788;DHT22;3431;47.966;10.268;2023-04-01T00:00:44;6.10;99.90
6788;DHT22;3431;47.966;10.268;2023-04-01T00:01:06;6.10;99.90
6788;DHT22;3431;47.966;10.268;2023-04-01T00:01:29;6.10;99.90
6788;DHT22;3431;47.966;10.268;2023-04-01T00:01:51;6.10;99.90
6788;DHT22;3431;47.966;10.268;2023-04-01T00:02:13;6.10;99.90
6788;DHT22;3431;47.966;10.268;2023-04-01T00:02:34;6.00;99.90
6788;DHT22;3431;47.966;10.268;2023-04-01T00:02:56;6.10;99.90
6788;DHT22;3431;47.966;10.268;2023-04-01T00:03:18;6.10;99.90
6788;DHT22;3431;47.966;10.268;2023-04-01T00:03:41;6.10;99.90
6788;DHT22;3431;47.966;10.268;2023-04-01T00:04:02;6.10;99.90
6788;DHT22;3431;47.966;10.268;2023-04-01T00:04:24;6.10;99.90
6788;DHT22;3431;47.966;10.268;2023-04-01T00:04:45;6.10;99.90
6788;DHT22;3431;47.966;10.268;2023-04-01T00:05:09;6.10;99.90
6788;DHT22;3431;47.966;10.268;2023-04-01T00:05:31;6.10;99.90
6788;DHT22;3431;47.966;10.268;2023-04-01T00:05:53;6.10;99.90
6788;DHT22;3431;47.966;10.268;2023-04-01T00:06:16;6.10;99.90
6788;DHT22;3431;47.966;10.268;2023-04-01T00:06:39;6.10;99.90
6788;DHT22;3431;47.966;10.268;2023-04-01T00:07:00;6.10;99.90
6788;DHT22;3431;47.966;10.268;2023-04-01T00:07:22;6.10;99.90
6788;DHT22;3431;47.966;10.268;2023-04-01T00:07:44;6.10;99.90
6788;DHT22;3431;47.966;10.268;2023-04-01T00:08:06;6.20;99.90
6788;DHT22;3431;47.966;10.268;2023-04-01T00:08:29;6.20;99.90
6788;DHT22;3431;47.966;10.268;2023-04-01T00:08:50;6.10;99.90
6788;DHT22;3431;47.966;10.268;2023-04-01T00:09:12;6.20;99.90
6788;DHT22;3431;47.966;10.268;2023-04-01T00:09:34;6.10;99.90
6788;DHT22;3431;47.966;10.268;2023-04-01T00:09:56;6.20;99.90
6788;DHT22;3431;47.966;10.268;2023-04-01T00:10:18;6.20;99.90
6788;DHT22;3431;47.966;10.268;2023-04-01T00:10:39;6.20;99.90
6788;DHT22;3431;47.966;10.268;2023-04-01T00:11:01;6.20;99.90
6788;DHT22;3431;47.966;10.268;2023-04-01T00:11:23;6.20;99.90
6788;DHT22;3431;47.966;10.268;2023-04-01T00:11:45;6.20;99.90
6788;DHT22;3431;47.966;10.268;2023-04-01T00:12:07;6.20;99.90
6788;DHT22;3431;47.966;10.268;2023-04-01T00:12:28;6.20;99.90
6788;DHT22;3431;47.966;10.268;2023-04-01T00:12:52;6.20;99.90
6788;DHT22;3431;47.966;10.268;2023-04-01T00:13:15;6.20;99.90
6788;DHT22;3431;47.966;10.268;2023-04-01T00:13:36;6.20;99.90
6788;DHT22;3431;47.966;10.268;2023-04-01T00:13:58;6.20;99.90
6788;DHT22;3431;47.966;10.268;2023-04-01T00:14:20;6.20;99.90
6788;DHT22;3431;47.966;10.268;2023-04-01T00:14:42;6.20;99.90
6788;DHT22;3431;47.966;10.268;2023-04-01T00:15:05;6.20;99.90
6788;DHT22;3431;47.966;10.268;2023-04-01T00:15:26;6.20;99.90
6788;DHT22;3431;47.966;10.268;2023-04-01T00:15:48;6.20;99.90
6788;DHT22;3431;47.966;10.268;2023-04-01T00:16:10;6.20;99.90
6788;DHT22;3431;47.966;10.268;2023-04-01T00:16:32;6.10;99.90
6788;DHT22;3431;47.966;10.268;2023-04-01T00:16:54;6.20;99.90
6788;DHT22;3431;47.966;10.268;2023-04-01T00:17:16;6.20;99.90
6788;DHT22;3431;47.966;10.268;2023-04-01T00:17:38;6.20;99.90
6788;DHT22;3431;47.966;10.268;2023-04-01T00:18:00;6.10;99.90
6788;DHT22;3431;47.966;10.268;2023-04-01T00:18:22;6.10;99.90
6788;DHT22;3431;47.966;10.268;2023-04-01T00:18:45;6.10;99.90
6788;DHT22;3431;47.966;10.268;2023-04-01T00:19:08;6.10;99.90
6788;DHT22;3431;47.966;10.268;2023-04-01T00:19:29;6.10;99.90
6788;DHT22;3431;47.966;10.268;2023-04-01T00:19:51;6.10;99.90
6788;DHT22;3431;47.966;10.268;2023-04-01T00:20:14;6.00;99.90
6788;DHT22;3431;47.966;10.268;2023-04-01T00:20:35;6.10;99.90
6788;DHT22;3431;47.966;10.268;2023-04-01T00:20:57;6.00;99.90
6788;DHT22;3431;47.966;10.268;2023-04-01T00:21:19;6.00;99.90
6788;DHT22;3431;47.966;10.268;2023-04-01T00:21:42;6.00;99.90
6788;DHT22;3431;47.966;10.268;2023-04-01T00:22:04;6.00;99.90
6788;DHT22;3431;47.966;10.268;2023-04-01T00:22:27;6.00;99.90
6788;DHT22;3431;47.966;10.268;2023-04-01T00:22:48;6.00;99.90
6788;DHT22;3431;47.966;10.268;2023-04-01T00:23:10;6.00;99.90
6788;DHT22;3431;47.966;10.268;2023-04-01T00:23:31;6.00;99.90
6788;DHT22;3431;47.966;10.268;2023-04-01T00:23:54;6.00;99.90
6788;DHT22;3431;47.966;10.268;2023-04-01T00:24:15;5.90;99.90
6788;DHT22;3431;47.966;10.268;2023-04-01T00:24:37;6.00;99.90
6788;DHT22;3431;47.966;10.268;2023-04-01T00:24:59;6.00;99.90
6788;DHT22;3431;47.966;10.268;2023-04-01T00:25:22;6.00;99.90
6788;DHT22;3431;47.966;10.268;2023-04-01T00:25:44;5.90;99.90
6788;DHT22;3431;47.966;10.268;2023-04-01T00:26:06;6.00;99.90
6788;DHT22;3431;47.966;10.268;2023-04-01T00:26:29;6.00;99.90
6788;DHT22;3431;47.966;10.268;2023-04-01T00:26:50;6.00;99.90
6788;DHT22;3431;47.966;10.268;2023-04-01T00:27:12;5.90;99.90
6788;DHT22;3431;47.966;10.268;2023-04-01T00:27:33;5.90;99.90
6788;DHT22;3431;47.966;10.268;2023-04-01T00:27:56;5.90;99.90
6788;DHT22;3431;47.966;10.268;2023-04-01T00:28:19;5.90;99.90
6788;DHT22;3431;47.966;10.268;2023-04-01T00:28:41;5.90;99.90
6788;DHT22;3431;47.966;10.268;2023-04-01T00:29:03;5.90;99.90
6788;DHT22;3431;47.966;10.268;2023-04-01T00:29:25;5.90;99.90
6788;DHT22;3431;47.966;10.268;2023-04-01T00:29:50;5.90;99.90
6788;DHT22;3431;47.966;10.268;2023-04-01T00:30:12;5.90;99.90
6788;DHT22;3431;47.966;10.268;2023-04-01T00:30:33;5.90;99.90
6788;DHT22;3431;47.966;10.268;2023-04-01T00:30:56;5.90;99.90
6788;DHT22;3431;47.966;10.268;2023-04-01T00:31:19;5.90;99.90
6788;DHT22;3431;47.966;10.268;2023-04-01T00:31:41;5.90;99.90
6788;DHT22;3431;47.966;10.268;2023-04-01T00:32:03;5.90;99.90
6788;DHT22;3431;47.966;10.268;2023-04-01T00:32:25;5.90;99.90
6788;DHT22;3431;47.966;10.268;2023-04-01T00:32:50;5.90;99.90
6788;DHT22;3431;47.966;10.268;2023-04-01T00:33:13;5.90;99.90
6788;DHT22;3431;47.966;10.268;2023-04-01T00:33:35;5.90;99.90
6788;DHT22;3431;47.966;10.268;2023-04-01T00:33:56;5.90;99.90
6788;DHT22;3431;47.966;10.268;2023-04-01T00:34:19;5.90;99.90
6788;DHT22;3431;47.966;10.268;2023-04-01T00:34:41;5.90;99.90
6788;DHT22;3431;47.966;10.268;2023-04-01T00:35:04;5.90;99.90
6788;DHT22;3431;47.966;10.268;2023-04-01T00:35:25;5.90;99.90
6788;DHT22;3431;47.966;10.268;2023-04-01T00:35:47;5.90;99.90
6788;DHT22;3431;47.966;10.268;2023-04-01T00:36:11;5.90;99.90
6788;DHT22;3431;47.966;10.268;2023-04-01T00:36:33;5.90;99.90
6788;DHT22;3431;47.966;10.268;2023-04-01T00:36:54;5.90;99.90
6788;DHT22;3431;47.966;10.268;2023-04-01T00:37:16;5.90;99.90
6788;DHT22;3431;47.966;10.268;2023-04-01T00:37:38;5.90;99.90
6788;DHT22;3431;47.966;10.268;2023-04-01T00:38:01;5.90;99.90
6788;DHT22;3431;47.966;10.268;2023-04-01T00:38:23;5.90;99.90
6788;DHT22;3431;47.966;10.268;2023-04-01T00:38:44;5.90;99.90
6788;DHT22;3431;47.966;10.268;2023-04-01T00:39:07;5.90;99.90
6788;DHT22;3431;47.966;10.268;2023-04-01T00:39:29;5.90;99.90
6788;DHT22;3431;47.966;10.268;2023-04-01T00:39:51;5.90;99.90
6788;DHT22;3431;47.966;10.268;2023-04-01T00:40:24;5.90;99.90
6788;DHT22;3431;47.966;10.268;2023-04-01T00:40:47;5.90;99.90
6788;DHT22;3431;47.966;10.268;2023-04-01T00:41:10;5.90;99.90
6788;DHT22;3431;47.966;10.268;2023-04-01T00:41:35;5.90;99.90
6788;DHT22;3431;47.966;10.268;2023-04-01T00:41:57;5.90;99.90
6788;DHT22;3431;47.966;10.268;2023-04-01T00:42:19;5.90;99.90
6788;DHT22;3431;47.966;10.268;2023-04-01T00:42:41;5.90;99.90
6788;DHT22;3431;47.966;10.268;2023-04-01T00:43:11;5.90;99.90
6788;DHT22;3431;47.966;10.268;2023-04-01T00:43:33;5.90;99.90
6788;DHT22;3431;47.966;10.268;2023-04-01T00:44:14;5.90;99.90
6788;DHT22;3431;47.966;10.268;2023-04-01T00:44:37;5.90;99.90
6788;DHT22;3431;47.966;10.268;2023-04-01T00:45:28;5.90;99.90
6788;DHT22;3431;47.966;10.268;2023-04-01T00:45:50;5.90;99.90
6788;DHT22;3431;47.966;10.268;2023-04-01T00:46:12;5.90;99.90
6788;DHT22;3431;47.966;10.268;2023-04-01T00:46:34;7.30;99.90
6788;DHT22;3431;47.966;10.268;2023-04-01T00:46:57;5.90;99.90
6788;DHT22;3431;47.966;10.268;2023-04-01T00:47:19;5.90;99.90
6788;DHT22;3431;47.966;10.268;2023-04-01T00:47:42;5.90;99.90
6788;DHT22;3431;47.966;10.268;2023-04-01T00:48:07;6.40;99.90
6788;DHT22;3431;47.966;10.268;2023-04-01T00:48:32;5.90;99.90
6788;DHT22;3431;47.966;10.268;2023-04-01T00:48:55;5.90;99.90
6788;DHT22;3431;47.966;10.268;2023-04-01T00:49:20;5.80;99.90
6788;DHT22;3431;47.966;10.268;2023-04-01T00:49:45;5.80;99.90
6788;DHT22;3431;47.966;10.268;2023-04-01T00:50:09;5.90;99.90
6788;DHT22;3431;47.966;10.268;2023-04-01T00:50:32;5.90;99.90
6788;DHT22;3431;47.966;10.268;2023-04-01T00:50:56;4.50;99.90
6788;DHT22;3431;47.966;10.268;2023-04-01T00:51:21;5.90;99.90
6788;DHT22;3431;47.966;10.268;2023-04-01T00:51:46;5.90;99.90
6788;DHT22;3431;47.966;10.268;2023-04-01T00:52:12;5.90;99.90
6788;DHT22;3431;47.966;10.268;2023-04-01T00:52:34;5.80;99.90
6788;DHT22;3431;47.966;10.268;2023-04-01T00:52:57;5.80;99.90
6788;DHT22;3431;47.966;10.268;2023-04-01T00:53:20;5.80;99.90
6788;DHT22;3431;47.966;10.268;2023-04-01T00:53:45;5.80;99.90
6788;DHT22;3431;47.966;10.268;2023-04-01T00:54:09;5.80;99.90
6788;DHT22;3431;47.966;10.268;2023-04-01T00:54:32;5.80;99.90
6788;DHT22;3431;47.966;10.268;2023-04-01T00:54:57;5.80;99.90
6788;DHT22;3431;47.966;10.268;2023-04-01T00:55:21;5.80;99.90
6788;DHT22;3431;47.966;10.268;2023-04-01T00:55:47;5.80;99.90
6788;DHT22;3431;47.966;10.268;2023-04-01T00:56:13;5.80;99.90
6788;DHT22;3431;47.966;10.268;2023-04-01T00:56:38;5.80;99.90
6788;DHT22;3431;47.966;10.268;2023-04-01T00:57:05;5.80;99.90
6788;DHT22;3431;47.966;10.268;2023-04-01T00:57:29;5.80;99.90
6788;DHT22;3431;47.966;10.268;2023-04-01T00:57:53;5.70;99.90
6788;DHT22;3431;47.966;10.268;2023-04-01T00:58:21;5.80;99.90
6788;DHT22;3431;47.966;10.268;2023-04-01T00:58:47;5.80;99.90
6788;DHT22;3431;47.966;10.268;2023-04-01T00:59:11;5.80;99.90
6788;DHT22;3431;47.966;10.268;2023-04-01T00:59:37;5.80;99.90
6788;DHT22;3431;47.966;10.268;2023-04-01T01:00:00;5.70;99.90
6788;DHT22;3431;47.966;10.268;2023-04-01T01:00:23;5.80;99.90
6788;DHT22;3431;47.966;10.268;2023-04-01T01:00:48;5.70;99.90
6788;DHT22;3431;47.966;10.268;2023-04-01T01:01:10;5.70;99.90
6788;DHT22;3431;47.966;10.268;2023-04-01T01:01:32;5.80;99.90
6788;DHT22;3431;47.966;10.268;2023-04-01T01:01:55;5.80;99.90
6788;DHT22;3431;47.966;10.268;2023-04-01T01:02:16;5.80;99.90
6788;DHT22;3431;47.966;10.268;2023-04-01T01:02:41;5.80;99.90
6788;DHT22;3431;47.966;10.268;2023-04-01T01:03:04;5.70;99.90
6788;DHT22;3431;47.966;10.268;2023-04-01T01:03:25;5.80;99.90
6788;DHT22;3431;47.966;10.268;2023-04-01T01:03:48;5.80;99.90
6788;DHT22;3431;47.966;10.268;2023-04-01T01:04:21;5.80;99.90
6788;DHT22;3431;47.966;10.268;2023-04-01T01:04:43;5.70;99.90
6788;DHT22;3431;47.966;10.268;2023-04-01T01:05:06;5.70;99.90
6788;DHT22;3431;47.966;10.268;2023-04-01T01:05:38;5.80;99.90
6788;DHT22;3431;47.966;10.268;2023-04-01T01:06:30;5.70;99.90
6788;DHT22;3431;47.966;10.268;2023-04-01T01:07:00;5.80;99.90
6788;DHT22;3431;47.966;10.268;2023-04-01T01:07:35;5.70;99.90
6788;DHT22;3431;47.966;10.268;2023-04-01T01:08:03;5.70;99.90
6788;DHT22;3431;47.966;10.268;2023-04-01T01:08:34;5.70;99.90
6788;DHT22;3431;47.966;10.268;2023-04-01T01:09:16;5.70;99.90
6788;DHT22;3431;47.966;10.268;2023-04-01T01:09:46;5.70;99.90
6788;DHT22;3431;47.966;10.268;2023-04-01T01:10:15;5.60;99.90
6788;DHT22;3431;47.966;10.268;2023-04-01T01:10:40;5.70;99.90
6788;DHT22;3431;47.966;10.268;2023-04-01T01:11:05;5.60;99.90
6788;DHT22;3431;47.966;10.268;2023-04-01T01:11:34;5.70;99.90
6788;DHT22;3431;47.966;10.268;2023-04-01T01:12:03;5.60;99.90
6788;DHT22;3431;47.966;10.268;2023-04-01T01:12:33;5.70;99.90
6788;DHT22;3431;47.966;10.268;2023-04-01T01:13:04;5.70;99.90
6788;DHT22;3431;47.966;10.268;2023-04-01T01:13:33;5.70;99.90
6788;DHT22;3431;47.966;10.268;2023-04-01T01:14:01;5.70;99.90
6788;DHT22;3431;47.966;10.268;2023-04-01T01:14:35;5.70;99.90
6788;DHT22;3431;47.966;10.268;2023-04-01T01:15:05;5.70;99.90
6788;DHT22;3431;47.966;10.268;2023-04-01T01:15:32;5.70;99.90
6788;DHT22;3431;47.966;10.268;2023-04-01T01:16:01;5.70;99.90
6788;DHT22;3431;47.966;10.268;2023-04-01T01:16:30;5.70;99.90
6788;DHT22;3431;47.966;10.268;2023-04-01T01:16:55;5.70;99.90
6788;DHT22;3431;47.966;10.268;2023-04-01T01:17:29;5.70;99.90
6788;DHT22;3431;47.966;10.268;2023-04-01T01:17:59;5.70;99.90
6788;DHT22;3431;47.966;10.268;2023-04-01T01:18:27;5.70;99.90
6788;DHT22;3431;47.966;10.268;2023-04-01T01:18:58;5.70;99.90
6788;DHT22;3431;47.966;10.268;2023-04-01T01:19:47;5.70;99.90
6788;DHT22;3431;47.966;10.268;2023-04-01T01:20:42;5.70;99.90
6788;DHT22;3431;47.966;10.268;2023-04-01T01:21:44;5.70;99.90
6788;DHT22;3431;47.966;10.268;2023-04-01T01:22:22;5.70;99.90
6788;DHT22;3431;47.966;10.268;2023-04-01T01:24:17;5.70;99.90
6788;DHT22;3431;47.966;10.268;2023-04-01T01:24:54;5.70;99.90
6788;DHT22;3431;47.966;10.268;2023-04-01T01:25:30;5.70;99.90
6788;DHT22;3431;47.966;10.268;2023-04-01T01:26:00;5.70;99.90
6788;DHT22;3431;47.966;10.268;2023-04-01T01:26:40;5.70;99.90
6788;DHT22;3431;47.966;10.268;2023-04-01T01:27:09;5.70;99.90
6788;DHT22;3431;47.966;10.268;2023-04-01T01:27:33;5.70;99.90
6788;DHT22;3431;47.966;10.268;2023-04-01T01:28:01;5.60;99.90
6788;DHT22;3431;47.966;10.268;2023-04-01T01:28:38;5.60;99.90
6788;DHT22;3431;47.966;10.268;2023-04-01T01:29:11;5.70;99.90
6788;DHT22;3431;47.966;10.268;2023-04-01T01:29:59;5.70;99.90
6788;DHT22;3431;47.966;10.268;2023-04-01T01:30:38;6.20;99.90
6788;DHT22;3431;47.966;10.268;2023-04-01T01:31:09;5.60;99.90
6788;DHT22;3431;47.966;10.268;2023-04-01T01:31:37;5.60;99.90
6788;DHT22;3431;47.966;10.268;2023-04-01T01:32:13;5.60;99.90
6788;DHT22;3431;47.966;10.268;2023-04-01T01:33:02;5.60;99.90
6788;DHT22;3431;47.966;10.268;2023-04-01T01:33:47;5.60;99.90
6788;DHT22;3431;47.966;10.268;2023-04-01T01:34:16;5.60;99.90
6788;DHT22;3431;47.966;10.268;2023-04-01T01:34:49;5.60;99.90
6788;DHT22;3431;47.966;10.268;2023-04-01T01:35:21;5.60;99.90
6788;DHT22;3431;47.966;10.268;2023-04-01T01:35:46;5.60;99.90
6788;DHT22;3431;47.966;10.268;2023-04-01T01:36:14;5.60;99.90
6788;DHT22;3431;47.966;10.268;2023-04-01T01:36:37;5.60;99.90
6788;DHT22;3431;47.966;10.268;2023-04-01T01:37:08;5.60;99.90
6788;DHT22;3431;47.966;10.268;2023-04-01T01:37:32;5.60;99.90
6788;DHT22;3431;47.966;10.268;2023-04-01T01:37:58;5.60;99.90
6788;DHT22;3431;47.966;10.268;2023-04-01T01:38:24;5.60;99.90
6788;DHT22;3431;47.966;10.268;2023-04-01T01:38:59;5.60;99.90
6788;DHT22;3431;47.966;10.268;2023-04-01T01:39:26;5.50;99.90
6788;DHT22;3431;47.966;10.268;2023-04-01T01:39:52;5.60;99.90
6788;DHT22;3431;47.966;10.268;2023-04-01T01:40:16;5.60;99.90
6788;DHT22;3431;47.966;10.268;2023-04-01T01:40:40;5.50;99.90
6788;DHT22;3431;47.966;10.268;2023-04-01T01:41:05;5.50;99.90
6788;DHT22;3431;47.966;10.268;2023-04-01T01:41:27;5.60;99.90
6788;DHT22;3431;47.966;10.268;2023-04-01T01:41:51;5.60;99.90
6788;DHT22;3431;47.966;10.268;2023-04-01T01:42:15;5.60;99.90
6788;DHT22;3431;47.966;10.268;2023-04-01T01:42:40;5.60;99.90
6788;DHT22;3431;47.966;10.268;2023-04-01T01:43:05;5.60;99.90
6788;DHT22;3431;47.966;10.268;2023-04-01T01:43:30;5.60;99.90
6788;DHT22;3431;47.966;10.268;2023-04-01T01:43:53;5.50;99.90
6788;DHT22;3431;47.966;10.268;2023-04-01T01:44:18;5.50;99.90
6788;DHT22;3431;47.966;10.268;2023-04-01T01:44:42;5.50;99.90
6788;DHT22;3431;47.966;10.268;2023-04-01T01:45:06;5.50;99.90
6788;DHT22;3431;47.966;10.268;2023-04-01T01:45:30;5.50;99.90
6788;DHT22;3431;47.966;10.268;2023-04-01T01:45:56;5.50;99.90
6788;DHT22;3431;47.966;10.268;2023-04-01T01:46:22;5.40;99.90
6788;DHT22;3431;47.966;10.268;2023-04-01T01:46:45;5.40;99.90
6788;DHT22;3431;47.966;10.268;2023-04-01T01:47:06;5.40;99.90
6788;DHT22;3431;47.966;10.268;2023-04-01T01:47:29;5.40;99.90
6788;DHT22;3431;47.966;10.268;2023-04-01T01:47:51;5.40;99.90
6788;DHT22;3431;47.966;10.268;2023-04-01T01:48:14;5.40;99.90
6788;DHT22;3431;47.966;10.268;2023-04-01T01:48:37;5.40;99.90
6788;DHT22;3431;47.966;10.268;2023-04-01T01:49:02;5.40;99.90
6788;DHT22;3431;47.966;10.268;2023-04-01T01:49:24;5.40;99.90
6788;DHT22;3431;47.966;10.268;2023-04-01T01:49:47;5.40;99.90
6788;DHT22;3431;47.966;10.268;2023-04-01T01:50:10;5.40;99.90
6788;DHT22;3431;47.966;10.268;2023-04-01T01:50:35;5.40;99.90
6788;DHT22;3431;47.966;10.268;2023-04-01T01:50:59;5.30;99.90
6788;DHT22;3431;47.966;10.268;2023-04-01T01:51:22;5.30;99.90
6788;DHT22;3431;47.966;10.268;2023-04-01T01:51:44;5.30;99.90
6788;DHT22;3431;47.966;10.268;2023-04-01T01:52:07;5.30;99.90
6788;DHT22;3431;47.966;10.268;2023-04-01T01:52:31;5.30;99.90
6788;DHT22;3431;47.966;10.268;2023-04-01T01:53:00;5.30;99.90
6788;DHT22;3431;47.966;10.268;2023-04-01T01:53:22;5.30;99.90
6788;DHT22;3431;47.966;10.268;2023-04-01T01:53:44;5.30;99.90
6788;DHT22;3431;47.966;10.268;2023-04-01T01:54:05;5.30;99.90
6788;DHT22;3431;47.966;10.268;2023-04-01T01:54:28;5.30;99.90
6788;DHT22;3431;47.966;10.268;2023-04-01T01:54:51;5.20;99.90
6788;DHT22;3431;47.966;10.268;2023-04-01T01:55:26;5.30;99.90
6788;DHT22;3431;47.966;10.268;2023-04-01T01:55:48;5.20;99.90
6788;DHT22;3431;47.966;10.268;2023-04-01T01:56:12;5.20;99.90
6788;DHT22;3431;47.966;10.268;2023-04-01T01:56:35;5.20;99.90
6788;DHT22;3431;47.966;10.268;2023-04-01T01:57:03;5.20;99.90
6788;DHT22;3431;47.966;10.268;2023-04-01T01:57:29;5.20;99.90
6788;DHT22;3431;47.966;10.268;2023-04-01T01:57:57;5.20;99.90
6788;DHT22;3431;47.966;10.268;2023-04-01T01:58:23;5.20;99.90
6788;DHT22;3431;47.966;10.268;2023-04-01T01:58:49;5.20;99.90
6788;DHT22;3431;47.966;10.268;2023-04-01T01:59:16;5.20;99.90
6788;DHT22;3431;47.966;10.268;2023-04-01T01:59:40;5.20;99.90
6788;DHT22;3431;47.966;10.268;2023-04-01T02:00:07;5.20;99.90
6788;DHT22;3431;47.966;10.268;2023-04-01T02:00:35;5.20;99.90
6788;DHT22;3431;47.966;10.268;2023-04-01T02:01:00;5.20;99.90
6788;DHT22;3431;47.966;10.268;2023-04-01T02:01:24;5.20;99.90
6788;DHT22;3431;47.966;10.268;2023-04-01T02:01:50;5.20;99.90
6788;DHT22;3431;47.966;10.268;2023-04-01T02:02:14;5.20;99.90
6788;DHT22;3431;47.966;10.268;2023-04-01T02:02:36;5.20;99.90
6788;DHT22;3431;47.966;10.268;2023-04-01T02:02:58;5.10;99.90
6788;DHT22;3431;47.966;10.268;2023-04-01T02:03:22;5.10;99.90
6788;DHT22;3431;47.966;10.268;2023-04-01T02:03:46;5.20;99.90
6788;DHT22;3431;47.966;10.268;2023-04-01T02:04:11;5.10;99.90
6788;DHT22;3431;47.966;10.268;2023-04-01T02:04:34;5.20;99.90
6788;DHT22;3431;47.966;10.268;2023-04-01T02:04:57;5.10;99.90
6788;DHT22;3431;47.966;10.268;2023-04-01T02:05:21;5.20;99.90
6788;DHT22;3431;47.966;10.268;2023-04-01T02:05:46;5.10;99.90
6788;DHT22;3431;47.966;10.268;2023-04-01T02:06:13;5.20;99.90
6788;DHT22;3431;47.966;10.268;2023-04-01T02:06:39;5.10;99.90
6788;DHT22;3431;47.966;10.268;2023-04-01T02:07:04;5.10;99.90
6788;DHT22;3431;47.966;10.268;2023-04-01T02:07:31;5.10;99.90
6788;DHT22;3431;47.966;10.268;2023-04-01T02:07:59;5.10;99.90
6788;DHT22;3431;47.966;10.268;2023-04-01T02:08:26;5.10;99.90
6788;DHT22;3431;47.966;10.268;2023-04-01T02:08:50;5.10;99.90
6788;DHT22;3431;47.966;10.268;2023-04-01T02:09:14;5.10;99.90
6788;DHT22;3431;47.966;10.268;2023-04-01T02:09:36;5.10;99.90
6788;DHT22;3431;47.966;10.268;2023-04-01T02:09:58;5.10;99.90
6788;DHT22;3431;47.966;10.268;2023-04-01T02:10:22;5.00;99.90
6788;DHT22;3431;47.966;10.268;2023-04-01T02:10:54;5.10;99.90
6788;DHT22;3431;47.966;10.268;2023-04-01T02:11:19;5.10;99.90
6788;DHT22;3431;47.966;10.268;2023-04-01T02:11:49;5.10;99.90
6788;DHT22;3431;47.966;10.268;2023-04-01T02:12:15;5.10;99.90
6788;DHT22;3431;47.966;10.268;2023-04-01T02:12:38;5.10;99.90
6788;DHT22;3431;47.966;10.268;2023-04-01T02:13:05;5.10;99.90
6788;DHT22;3431;47.966;10.268;2023-04-01T02:13:32;5.10;99.90
6788;DHT22;3431;47.966;10.268;2023-04-01T02:14:02;5.00;99.90
6788;DHT22;3431;47.966;10.268;2023-04-01T02:14:26;5.00;99.90
6788;DHT22;3431;47.966;10.268;2023-04-01T02:14:52;5.00;99.90
6788;DHT22;3431;47.966;10.268;2023-04-01T02:15:18;5.10;99.90
6788;DHT22;3431;47.966;10.268;2023-04-01T02:15:47;5.10;99.90
6788;DHT22;3431;47.966;10.268;2023-04-01T02:16:15;5.10;99.90
6788;DHT22;3431;47.966;10.268;2023-04-01T02:16:42;5.10;99.90
6788;DHT22;3431;47.966;10.268;2023-04-01T02:17:09;5.10;99.90
6788;DHT22;3431;47.966;10.268;2023-04-01T02:17:32;5.10;99.90
6788;DHT22;3431;47.966;10.268;2023-04-01T02:17:55;5.10;99.90
6788;DHT22;3431;47.966;10.268;2023-04-01T02:18:18;5.00;99.90
6788;DHT22;3431;47.966;10.268;2023-04-01T02:18:43;5.10;99.90
6788;DHT22;3431;47.966;10.268;2023-04-01T02:19:07;5.00;99.90
6788;DHT22;3431;47.966;10.268;2023-04-01T02:19:33;5.10;99.90
6788;DHT22;3431;47.966;10.268;2023-04-01T02:20:00;5.00;99.90
6788;DHT22;3431;47.966;10.268;2023-04-01T02:20:27;5.10;99.90
6788;DHT22;3431;47.966;10.268;2023-04-01T02:20:52;5.10;99.90
6788;DHT22;3431;47.966;10.268;2023-04-01T02:21:14;5.00;99.90
6788;DHT22;3431;47.966;10.268;2023-04-01T02:21:37;5.10;99.90
6788;DHT22;3431;47.966;10.268;2023-04-01T02:22:03;5.00;99.90
6788;DHT22;3431;47.966;10.268;2023-04-01T02:22:28;5.00;99.90
6788;DHT22;3431;47.966;10.268;2023-04-01T02:22:53;5.00;99.90
6788;DHT22;3431;47.966;10.268;2023-04-01T02:23:16;5.00;99.90
6788;DHT22;3431;47.966;10.268;2023-04-01T02:23:38;5.00;99.90
6788;DHT22;3431;47.966;10.268;2023-04-01T02:24:04;5.00;99.90
6788;DHT22;3431;47.966;10.268;2023-04-01T02:24:30;5.00;99.90
6788;DHT22;3431;47.966;10.268;2023-04-01T02:24:57;5.00;99.90
6788;DHT22;3431;47.966;10.268;2023-04-01T02:25:22;5.00;99.90
6788;DHT22;3431;47.966;10.268;2023-04-01T02:25:47;5.00;99.90
6788;DHT22;3431;47.966;10.268;2023-04-01T02:26:09;5.00;99.90
6788;DHT22;3431;47.966;10.268;2023-04-01T02:26:34;5.00;99.90
6788;DHT22;3431;47.966;10.268;2023-04-01T02:26:56;4.90;99.90
6788;DHT22;3431;47.966;10.268;2023-04-01T02:27:18;4.90;99.90
6788;DHT22;3431;47.966;10.268;2023-04-01T02:27:42;5.00;99.90
6788;DHT22;3431;47.966;10.268;2023-04-01T02:28:06;5.00;99.90
6788;DHT22;3431;47.966;10.268;2023-04-01T02:28:31;4.90;99.90
6788;DHT22;3431;47.966;10.268;2023-04-01T02:28:54;5.00;99.90
6788;DHT22;3431;47.966;10.268;2023-04-01T02:29:20;4.90;99.90
6788;DHT22;3431;47.966;10.268;2023-04-01T02:29:42;5.00;99.90
6788;DHT22;3431;47.966;10.268;2023-04-01T02:30:05;4.90;99.90
6788;DHT22;3431;47.966;10.268;2023-04-01T02:30:29;4.90;99.90
6788;DHT22;3431;47.966;10.268;2023-04-01T02:30:54;4.90;99.90
6788;DHT22;3431;47.966;10.268;2023-04-01T02:31:17;4.90;99.90
6788;DHT22;3431;47.966;10.268;2023-04-01T02:31:39;4.90;99.90
6788;DHT22;3431;47.966;10.268;2023-04-01T02:32:02;4.90;99.90
6788;DHT22;3431;47.966;10.268;2023-04-01T02:32:27;4.90;99.90
6788;DHT22;3431;47.966;10.268;2023-04-01T02:32:49;4.90;99.90
6788;DHT22;3431;47.966;10.268;2023-04-01T02:33:11;4.90;99.90
6788;DHT22;3431;47.966;10.268;2023-04-01T02:33:33;4.90;99.90
6788;DHT22;3431;47.966;10.268;2023-04-01T02:33:56;4.90;99.90
6788;DHT22;3431;47.966;10.268;2023-04-01T02:34:19;4.90;99.90
6788;DHT22;3431;47.966;10.268;2023-04-01T02:34:41;4.90;99.90
6788;DHT22;3431;47.966;10.268;2023-04-01T02:35:05;4.90;99.90
6788;DHT22;3431;47.966;10.268;2023-04-01T02:35:27;4.90;99.90
6788;DHT22;3431;47.966;10.268;2023-04-01T02:35:49;4.90;99.90
6788;DHT22;3431;47.966;10.268;2023-04-01T02:36:13;4.90;99.90
6788;DHT22;3431;47.966;10.268;2023-04-01T02:36:36;4.90;99.90
6788;DHT22;3431;47.966;10.268;2023-04-01T02:36:59;4.90;99.90
6788;DHT22;3431;47.966;10.268;2023-04-01T02:37:21;4.90;99.90
6788;DHT22;3431;47.966;10.268;2023-04-01T02:37:43;4.90;99.90
6788;DHT22;3431;47.966;10.268;2023-04-01T02:38:05;4.90;99.90
6788;DHT22;3431;47.966;10.268;2023-04-01T02:38:29;4.90;99.90
6788;DHT22;3431;47.966;10.268;2023-04-01T02:38:52;4.90;99.90
6788;DHT22;3431;47.966;10.268;2023-04-01T02:39:13;4.90;99.90
6788;DHT22;3431;47.966;10.268;2023-04-01T02:39:35;4.90;99.90
6788;DHT22;3431;47.966;10.268;2023-04-01T02:39:59;4.90;99.90
6788;DHT22;3431;47.966;10.268;2023-04-01T02:40:22;4.90;99.90
6788;DHT22;3431;47.966;10.268;2023-04-01T02:40:46;4.90;99.90
6788;DHT22;3431;47.966;10.268;2023-04-01T02:41:08;4.80;99.90
6788;DHT22;3431;47.966;10.268;2023-04-01T02:41:29;4.80;99.90
6788;DHT22;3431;47.966;10.268;2023-04-01T02:41:51;4.90;99.90
6788;DHT22;3431;47.966;10.268;2023-04-01T02:42:14;4.90;99.90
6788;DHT22;3431;47.966;10.268;2023-04-01T02:42:36;4.90;99.90
6788;DHT22;3431;47.966;10.268;2023-04-01T02:42:59;4.80;99.90
6788;DHT22;3431;47.966;10.268;2023-04-01T02:43:20;4.90;99.90
6788;DHT22;3431;47.966;10.268;2023-04-01T02:43:43;4.80;99.90
6788;DHT22;3431;47.966;10.268;2023-04-01T02:44:05;4.90;99.90
6788;DHT22;3431;47.966;10.268;2023-04-01T02:44:27;4.90;99.90
6788;DHT22;3431;47.966;10.268;2023-04-01T02:44:49;4.90;99.90
6788;DHT22;3431;47.966;10.268;2023-04-01T02:45:11;4.90;99.90